createdAt,value
2018-04-19T00:00:39.948Z,31.4
2018-04-19T00:01:40.687Z,30.9
2018-04-19T00:02:41.493Z,31.5
2018-04-19T00:03:42.658Z,30.9
2018-04-19T00:04:43.380Z,31.7
2018-04-19T00:05:44.113Z,31.1
2018-04-19T00:06:44.932Z,32.4
2018-04-19T00:07:45.682Z,30.2
2018-04-19T00:08:46.427Z,32.3
2018-04-19T00:09:47.154Z,30.4
2018-04-19T00:10:47.957Z,31.4
2018-04-19T00:11:48.746Z,32.7
2018-04-19T00:12:49.487Z,30.6
2018-04-19T00:13:50.263Z,30.9
2018-04-19T00:14:51.013Z,31.8
2018-04-19T00:15:51.760Z,31.6
2018-04-19T00:16:52.893Z,32.0
2018-04-19T00:17:53.648Z,32.9
2018-04-19T00:18:54.484Z,31.5
2018-04-19T00:19:55.218Z,31.3
2018-04-19T00:20:55.958Z,31.9
2018-04-19T00:21:56.792Z,32.7
2018-04-19T00:22:57.532Z,35.5
2018-04-19T00:23:58.274Z,34.3
2018-04-19T00:24:59.061Z,34.6
2018-04-19T00:25:59.806Z,32.0
2018-04-19T00:27:00.638Z,33.0
2018-04-19T00:28:01.382Z,33.5
2018-04-19T00:29:02.152Z,34.5
2018-04-19T00:30:02.963Z,32.3
2018-04-19T00:31:03.794Z,34.2
2018-04-19T00:32:04.643Z,34.9
2018-04-19T00:33:05.455Z,34.7
2018-04-19T00:34:06.239Z,35.7
2018-04-19T00:35:06.991Z,36.4
2018-04-19T00:36:07.714Z,35.3
2018-04-19T00:37:08.473Z,35.4
2018-04-19T00:38:09.252Z,35.7
2018-04-19T00:39:09.995Z,35.4
2018-04-19T00:40:10.717Z,33.1
2018-04-19T00:41:11.532Z,36.4
2018-04-19T00:42:12.274Z,34.3
2018-04-19T00:43:13.019Z,35.6
2018-04-19T00:44:13.821Z,36.8
2018-04-19T00:45:14.553Z,36.5
2018-04-19T00:46:15.287Z,37.4
2018-04-19T00:47:16.047Z,35.9
2018-04-19T00:48:16.918Z,37.3
2018-04-19T00:49:17.664Z,39.6
2018-04-19T00:50:18.485Z,38.9
2018-04-19T00:51:19.205Z,36.8
2018-04-19T00:52:19.964Z,37.1
2018-04-19T00:53:20.773Z,36.5
2018-04-19T00:54:21.582Z,37.0
2018-04-19T00:55:22.322Z,39.3
2018-04-19T00:56:23.103Z,38.3
2018-04-19T00:57:23.841Z,36.3
2018-04-19T00:58:24.570Z,36.5
2018-04-19T00:59:25.331Z,37.4
2018-04-19T01:00:26.153Z,39.7
2018-04-19T01:01:26.913Z,38.2
2018-04-19T01:02:27.643Z,40.3
2018-04-19T01:03:28.369Z,39.4
2018-04-19T01:04:29.115Z,38.1
2018-04-19T01:05:29.958Z,39.9
2018-04-19T01:06:30.721Z,40.7
2018-04-19T01:07:31.464Z,39.3
2018-04-19T01:08:32.210Z,38.8
2018-04-19T01:09:32.937Z,39.9
2018-04-19T01:10:33.780Z,40.2
2018-04-19T01:11:34.532Z,40.3
2018-04-19T01:12:35.292Z,40.1
2018-04-19T01:13:36.043Z,38.4
2018-04-19T01:14:36.778Z,36.3
2018-04-19T01:15:37.550Z,36.6
2018-04-19T01:16:38.292Z,36.5
2018-04-19T01:17:39.056Z,38.5
2018-04-19T01:18:39.802Z,39.7
2018-04-19T01:19:40.542Z,38.6
2018-04-19T01:20:41.292Z,37.6
2018-04-19T01:21:42.036Z,35.9
2018-04-19T01:22:42.844Z,36.2
2018-04-19T01:23:43.589Z,36.8
2018-04-19T01:24:44.341Z,36.1
2018-04-19T01:25:45.083Z,37.0
2018-04-19T01:26:45.822Z,35.7
2018-04-19T01:27:46.654Z,36.0
2018-04-19T01:28:47.407Z,36.5
2018-04-19T01:29:48.208Z,37.4
2018-04-19T01:30:48.988Z,36.6
2018-04-19T01:31:49.793Z,35.6
2018-04-19T01:32:50.643Z,35.5
2018-04-19T01:33:51.391Z,35.3
2018-04-19T01:34:52.160Z,35.0
2018-04-19T01:35:52.897Z,34.4
2018-04-19T01:36:53.742Z,34.6
2018-04-19T01:37:54.489Z,35.1
2018-04-19T01:38:55.222Z,35.9
2018-04-19T01:39:55.962Z,35.6
2018-04-19T01:40:56.676Z,34.8
2018-04-19T01:41:57.423Z,35.0
2018-04-19T01:42:58.163Z,35.3
2018-04-19T01:43:58.910Z,34.7
2018-04-19T01:44:59.635Z,35.0
2018-04-19T01:46:00.393Z,35.2
2018-04-19T01:47:01.128Z,36.1
2018-04-19T01:48:01.865Z,34.7
2018-04-19T01:49:02.668Z,35.8
2018-04-19T01:50:03.482Z,36.4
2018-04-19T01:51:04.230Z,34.9
2018-04-19T01:52:04.963Z,36.2
2018-04-19T01:53:05.713Z,35.2
2018-04-19T01:54:06.462Z,35.0
2018-04-19T01:55:07.206Z,34.7
2018-04-19T01:56:08.028Z,34.9
2018-04-19T01:57:08.765Z,36.6
2018-04-19T01:58:09.578Z,36.7
2018-04-19T01:59:10.410Z,34.8
2018-04-19T02:00:11.234Z,35.4
2018-04-19T02:01:12.042Z,36.3
2018-04-19T02:02:12.765Z,36.4
2018-04-19T02:03:13.499Z,35.2
2018-04-19T02:04:14.698Z,35.1
2018-04-19T02:05:15.420Z,35.9
2018-04-19T02:06:16.137Z,36.4
2018-04-19T02:07:16.866Z,34.1
2018-04-19T02:08:17.613Z,34.8
2018-04-19T02:09:18.483Z,35.3
2018-04-19T02:10:19.293Z,35.6
2018-04-19T02:11:20.036Z,36.5
2018-04-19T02:12:20.765Z,36.7
2018-04-19T02:13:21.466Z,37.0
2018-04-19T02:14:22.277Z,36.4
2018-04-19T02:15:23.001Z,37.9
2018-04-19T02:16:23.751Z,35.7
2018-04-19T02:17:24.543Z,36.2
2018-04-19T02:18:25.283Z,37.0
2018-04-19T02:19:26.357Z,37.7
2018-04-19T02:20:27.082Z,39.9
2018-04-19T02:21:27.826Z,39.4
2018-04-19T02:22:28.616Z,39.6
2018-04-19T02:23:29.368Z,40.0
2018-04-19T02:24:30.226Z,38.4
2018-04-19T02:25:31.028Z,41.0
2018-04-19T02:26:31.772Z,42.3
2018-04-19T02:27:32.504Z,41.1
2018-04-19T02:28:33.238Z,41.0
2018-04-19T02:29:33.988Z,40.4
2018-04-19T02:30:34.804Z,38.8
2018-04-19T02:31:35.695Z,39.8
2018-04-19T02:32:36.442Z,40.6
2018-04-19T02:33:37.173Z,41.9
2018-04-19T02:34:37.889Z,41.3
2018-04-19T02:35:38.651Z,40.7
2018-04-19T02:36:39.542Z,44.0
2018-04-19T02:37:40.259Z,41.8
2018-04-19T02:38:40.995Z,43.2
2018-04-19T02:39:41.736Z,42.7
2018-04-19T02:40:42.473Z,40.1
2018-04-19T02:41:43.199Z,42.3
2018-04-19T02:42:43.938Z,42.9
2018-04-19T02:43:44.681Z,42.7
2018-04-19T02:44:45.420Z,40.9
2018-04-19T02:45:46.163Z,42.8
2018-04-19T02:46:46.899Z,42.6
2018-04-19T02:47:47.637Z,42.5
2018-04-19T02:48:48.381Z,43.5
2018-04-19T02:49:49.510Z,42.7
2018-04-19T02:50:50.258Z,43.3
2018-04-19T02:51:51.000Z,43.0
2018-04-19T02:52:51.725Z,43.1
2018-04-19T02:53:52.463Z,43.3
2018-04-19T02:54:53.205Z,42.6
2018-04-19T02:55:53.963Z,41.7
2018-04-19T02:56:54.793Z,41.4
2018-04-19T02:57:55.538Z,42.4
2018-04-19T02:58:56.287Z,42.9
2018-04-19T02:59:57.083Z,43.4
2018-04-19T03:00:57.824Z,44.4
2018-04-19T03:01:58.543Z,45.3
2018-04-19T03:02:59.268Z,46.3
2018-04-19T03:04:00.056Z,43.5
2018-04-19T03:05:00.791Z,43.8
2018-04-19T03:06:01.590Z,42.4
2018-04-19T03:07:02.307Z,43.9
2018-04-19T03:08:03.053Z,42.8
2018-04-19T03:09:03.795Z,46.0
2018-04-19T03:10:04.566Z,45.3
2018-04-19T03:11:05.294Z,45.8
2018-04-19T03:12:06.098Z,47.7
2018-04-19T03:13:06.986Z,45.0
2018-04-19T03:14:07.733Z,44.8
2018-04-19T03:15:08.431Z,73.4
2018-04-19T03:16:09.170Z,54.4
2018-04-19T03:17:09.948Z,47.3
2018-04-19T03:18:10.770Z,46.4
2018-04-19T03:19:11.578Z,46.5
2018-04-19T03:20:12.308Z,43.6
2018-04-19T03:21:13.055Z,43.1
2018-04-19T03:22:13.794Z,45.9
2018-04-19T03:23:14.550Z,43.3
2018-04-19T03:24:15.379Z,44.2
2018-04-19T03:25:16.218Z,44.9
2018-04-19T03:26:16.941Z,43.5
2018-04-19T03:27:17.667Z,44.4
2018-04-19T03:28:18.408Z,44.5
2018-04-19T03:29:19.165Z,42.9
2018-04-19T03:30:19.902Z,41.6
2018-04-19T03:31:20.719Z,39.4
2018-04-19T03:32:21.463Z,41.5
2018-04-19T03:33:22.197Z,40.7
2018-04-19T03:34:22.943Z,42.1
2018-04-19T03:35:23.980Z,39.3
2018-04-19T03:36:24.794Z,37.7
2018-04-19T03:37:25.526Z,37.1
2018-04-19T03:38:26.349Z,39.0
2018-04-19T03:39:27.080Z,35.8
2018-04-19T03:40:27.879Z,36.0
2018-04-19T03:41:28.615Z,35.9
2018-04-19T03:42:29.346Z,36.7
2018-04-19T03:43:30.070Z,37.1
2018-04-19T03:44:30.894Z,36.1
2018-04-19T03:45:31.698Z,33.6
2018-04-19T03:46:32.440Z,32.5
2018-04-19T03:47:33.184Z,35.4
2018-04-19T03:48:33.961Z,33.3
2018-04-19T03:49:34.679Z,34.3
2018-04-19T03:50:35.813Z,34.0
2018-04-19T03:51:36.532Z,33.4
2018-04-19T03:52:37.351Z,31.4
2018-04-19T03:53:38.172Z,31.3
2018-04-19T03:54:38.918Z,32.5
2018-04-19T03:55:39.669Z,32.9
2018-04-19T03:56:40.404Z,32.5
2018-04-19T03:57:41.140Z,33.3
2018-04-19T03:58:41.880Z,32.5
2018-04-19T03:59:42.993Z,33.4
2018-04-19T04:00:43.734Z,32.2
2018-04-19T04:01:44.473Z,33.1
2018-04-19T04:02:45.202Z,32.7
2018-04-19T04:03:45.947Z,34.1
2018-04-19T04:04:46.863Z,32.5
2018-04-19T04:05:47.625Z,31.9
2018-04-19T04:06:48.372Z,32.8
2018-04-19T04:07:49.115Z,30.9
2018-04-19T04:08:50.000Z,33.2
2018-04-19T04:09:50.656Z,34.7
2018-04-19T04:10:51.488Z,33.4
2018-04-19T04:11:52.275Z,35.8
2018-04-19T04:12:53.082Z,35.6
2018-04-19T04:13:53.875Z,33.4
2018-04-19T04:14:54.595Z,34.7
2018-04-19T04:15:55.323Z,35.6
2018-04-19T04:16:56.061Z,33.9
2018-04-19T04:17:56.913Z,35.4
2018-04-19T04:18:57.647Z,34.7
2018-04-19T04:19:58.465Z,34.6
2018-04-19T04:20:59.268Z,35.2
2018-04-19T04:22:00.054Z,36.0
2018-04-19T04:23:00.803Z,34.8
2018-04-19T04:24:01.566Z,34.6
2018-04-19T04:25:02.291Z,33.2
2018-04-19T04:26:03.053Z,34.1
2018-04-19T04:27:03.810Z,36.0
2018-04-19T04:28:04.940Z,34.2
2018-04-19T04:29:05.672Z,36.4
2018-04-19T04:30:06.444Z,39.4
2018-04-19T04:31:07.269Z,39.7
2018-04-19T04:32:07.970Z,41.6
2018-04-19T04:33:08.825Z,41.6
2018-04-19T04:34:09.549Z,39.9
2018-04-19T04:35:10.374Z,43.0
2018-04-19T04:36:11.115Z,42.0
2018-04-19T04:37:11.866Z,42.1
2018-04-19T04:38:12.759Z,43.7
2018-04-19T04:39:13.576Z,42.0
2018-04-19T04:40:14.323Z,44.3
2018-04-19T04:41:15.055Z,47.4
2018-04-19T04:42:15.804Z,46.9
2018-04-19T04:43:16.538Z,47.3
2018-04-19T04:44:17.317Z,46.4
2018-04-19T04:45:18.057Z,50.7
2018-04-19T04:46:18.793Z,48.5
2018-04-19T04:47:19.609Z,51.3
2018-04-19T04:48:20.431Z,52.7
2018-04-19T04:49:21.251Z,56.7
2018-04-19T04:50:22.046Z,54.3
2018-04-19T04:51:22.777Z,57.3
2018-04-19T04:52:23.527Z,57.5
2018-04-19T04:53:24.329Z,57.2
2018-04-19T04:54:25.085Z,59.3
2018-04-19T04:55:25.923Z,59.1
2018-04-19T04:56:26.717Z,61.6
2018-04-19T04:57:27.474Z,61.4
2018-04-19T04:58:28.364Z,61.7
2018-04-19T04:59:29.106Z,61.1
2018-04-19T05:00:29.852Z,59.1
2018-04-19T05:01:30.598Z,60.5
2018-04-19T05:02:31.383Z,57.6
2018-04-19T05:03:32.481Z,55.5
2018-04-19T05:04:33.229Z,56.0
2018-04-19T05:05:34.034Z,54.5
2018-04-19T05:06:34.819Z,55.3
2018-04-19T05:07:35.556Z,53.6
2018-04-19T05:08:36.306Z,53.6
2018-04-19T05:09:37.041Z,53.8
2018-04-19T05:10:37.792Z,54.5
2018-04-19T05:11:38.620Z,53.1
2018-04-19T05:12:39.375Z,52.7
2018-04-19T05:13:40.195Z,50.8
2018-04-19T05:14:40.941Z,49.9
2018-04-19T05:15:41.682Z,53.5
2018-04-19T05:16:42.424Z,50.7
2018-04-19T05:17:43.179Z,50.0
2018-04-19T05:18:43.995Z,50.5
2018-04-19T05:19:44.750Z,48.4
2018-04-19T05:20:45.558Z,48.7
2018-04-19T05:21:46.366Z,47.0
2018-04-19T05:22:47.112Z,48.4
2018-04-19T05:23:47.849Z,47.1
2018-04-19T05:24:48.590Z,45.5
2018-04-19T05:25:49.661Z,47.2
2018-04-19T05:26:50.418Z,46.4
2018-04-19T05:27:51.175Z,45.8
2018-04-19T05:28:51.912Z,45.9
2018-04-19T05:29:52.647Z,46.2
2018-04-19T05:30:53.395Z,43.7
2018-04-19T05:31:54.138Z,43.9
2018-04-19T05:32:54.866Z,44.5
2018-04-19T05:33:55.600Z,43.0
2018-04-19T05:34:56.340Z,43.6
2018-04-19T05:35:57.129Z,42.4
2018-04-19T05:36:57.889Z,41.2
2018-04-19T05:37:58.735Z,41.7
2018-04-19T05:38:59.546Z,40.9
2018-04-19T05:40:00.348Z,37.8
2018-04-19T05:41:01.275Z,37.3
2018-04-19T05:42:02.041Z,37.5
2018-04-19T05:43:02.779Z,37.1
2018-04-19T05:44:03.613Z,35.2
2018-04-19T05:45:04.439Z,36.2
2018-04-19T05:46:05.245Z,36.1
2018-04-19T05:47:05.985Z,36.0
2018-04-19T05:48:06.736Z,37.3
2018-04-19T05:49:07.536Z,48.8
2018-04-19T05:50:08.365Z,38.5
2018-04-19T05:51:09.220Z,39.6
2018-04-19T05:52:09.980Z,37.4
2018-04-19T05:53:10.728Z,37.6
2018-04-19T05:54:11.521Z,38.8
2018-04-19T05:55:12.330Z,35.0
2018-04-19T05:56:13.162Z,34.3
2018-04-19T05:57:13.991Z,35.4
2018-04-19T05:58:14.789Z,34.8
2018-04-19T05:59:15.589Z,33.9
2018-04-19T06:00:16.313Z,33.2
2018-04-19T06:01:17.068Z,31.4
2018-04-19T06:02:17.812Z,32.1
2018-04-19T06:03:18.640Z,32.2
2018-04-19T06:04:19.376Z,31.1
2018-04-19T06:05:20.127Z,30.2
2018-04-19T06:06:21.053Z,31.4
2018-04-19T06:07:21.877Z,31.3
2018-04-19T06:08:22.625Z,30.1
2018-04-19T06:09:23.415Z,30.5
2018-04-19T06:10:24.217Z,30.6
2018-04-19T06:11:25.044Z,30.1
2018-04-19T06:12:25.790Z,30.7
2018-04-19T06:13:26.543Z,31.0
2018-04-19T06:14:27.266Z,30.2
2018-04-19T06:15:28.025Z,30.3
2018-04-19T06:16:29.124Z,27.6
2018-04-19T06:17:29.864Z,27.3
2018-04-19T06:18:30.598Z,26.3
2018-04-19T06:19:31.339Z,26.4
2018-04-19T06:20:32.088Z,27.2
2018-04-19T06:21:32.851Z,26.2
2018-04-19T06:22:33.666Z,27.3
2018-04-19T06:23:34.446Z,27.6
2018-04-19T06:24:35.267Z,28.4
2018-04-19T06:25:36.007Z,26.3
2018-04-19T06:26:36.763Z,26.9
2018-04-19T06:27:37.607Z,27.5
2018-04-19T06:28:38.456Z,26.4
2018-04-19T06:29:39.192Z,27.7
2018-04-19T06:30:39.931Z,24.8
2018-04-19T06:31:40.672Z,25.3
2018-04-19T06:32:41.397Z,24.7
2018-04-19T06:33:42.216Z,24.7
2018-04-19T06:34:42.946Z,25.8
2018-04-19T06:35:43.701Z,25.7
2018-04-19T06:36:44.521Z,24.0
2018-04-19T06:37:45.334Z,24.2
2018-04-19T06:38:46.085Z,23.3
2018-04-19T06:39:46.915Z,23.8
2018-04-19T06:40:47.755Z,24.7
2018-04-19T06:41:48.503Z,23.4
2018-04-19T06:42:49.331Z,25.1
2018-04-19T06:43:50.094Z,22.9
2018-04-19T06:44:50.834Z,23.3
2018-04-19T06:45:51.572Z,23.7
2018-04-19T06:46:52.327Z,23.5
2018-04-19T06:47:53.078Z,22.9
2018-04-19T06:48:53.843Z,23.2
2018-04-19T06:49:54.605Z,22.7
2018-04-19T06:50:55.420Z,22.1
2018-04-19T06:51:56.159Z,23.7
2018-04-19T06:52:56.893Z,22.6
2018-04-19T06:53:57.635Z,22.2
2018-04-19T06:54:58.387Z,22.9
2018-04-19T06:55:59.198Z,22.6
2018-04-19T06:57:00.017Z,21.4
2018-04-19T06:58:00.749Z,21.5
2018-04-19T06:59:01.565Z,20.0
2018-04-19T07:00:02.350Z,21.2
2018-04-19T07:01:03.172Z,20.9
2018-04-19T07:02:03.935Z,20.5
2018-04-19T07:03:04.681Z,21.5
2018-04-19T07:04:05.451Z,20.4
2018-04-19T07:05:06.287Z,20.2
2018-04-19T07:06:07.040Z,20.1
2018-04-19T07:07:07.786Z,20.2
2018-04-19T07:08:08.544Z,19.8
2018-04-19T07:09:09.287Z,19.9
2018-04-19T07:10:10.041Z,19.5
2018-04-19T07:11:10.819Z,18.8
2018-04-19T07:12:11.574Z,18.2
2018-04-19T07:13:12.411Z,17.3
2018-04-19T07:14:13.140Z,18.1
2018-04-19T07:15:13.976Z,17.4
2018-04-19T07:16:14.706Z,17.5
2018-04-19T07:17:15.464Z,17.9
2018-04-19T07:18:16.192Z,16.3
2018-04-19T07:19:16.986Z,18.4
2018-04-19T07:20:17.811Z,17.8
2018-04-19T07:21:18.572Z,17.7
2018-04-19T07:22:19.329Z,18.8
2018-04-19T07:23:20.109Z,16.9
2018-04-19T07:24:20.955Z,19.8
2018-04-19T07:25:21.713Z,18.1
2018-04-19T07:26:22.527Z,18.5
2018-04-19T07:27:23.262Z,17.9
2018-04-19T07:28:24.004Z,18.2
2018-04-19T07:29:24.810Z,16.5
2018-04-19T07:30:25.563Z,15.4
2018-04-19T07:31:26.332Z,14.7
2018-04-19T07:32:27.187Z,14.1
2018-04-19T07:33:27.936Z,14.6
2018-04-19T07:34:28.739Z,15.0
2018-04-19T07:35:29.500Z,15.1
2018-04-19T07:36:30.320Z,14.4
2018-04-19T07:37:31.137Z,14.2
2018-04-19T07:38:31.975Z,14.5
2018-04-19T07:39:32.728Z,14.5
2018-04-19T07:40:33.480Z,15.7
2018-04-19T07:41:34.222Z,15.6
2018-04-19T07:42:35.043Z,15.8
2018-04-19T07:43:35.879Z,16.5
2018-04-19T07:44:36.620Z,16.7
2018-04-19T07:45:37.456Z,16.2
2018-04-19T07:46:38.280Z,15.4
2018-04-19T07:47:39.098Z,15.3
2018-04-19T07:48:39.896Z,13.9
2018-04-19T07:49:40.734Z,14.3
2018-04-19T07:50:41.482Z,14.9
2018-04-19T07:51:42.305Z,14.3
2018-04-19T07:52:43.065Z,13.2
2018-04-19T07:53:44.229Z,12.8
2018-04-19T07:54:44.958Z,13.1
2018-04-19T07:55:45.785Z,12.8
2018-04-19T07:56:46.544Z,11.4
2018-04-19T07:57:47.287Z,11.8
2018-04-19T07:58:48.095Z,13.0
2018-04-19T07:59:48.957Z,10.7
2018-04-19T08:00:49.806Z,11.9
2018-04-19T08:01:50.626Z,12.1
2018-04-19T08:02:51.391Z,11.1
2018-04-19T08:03:52.143Z,11.6
2018-04-19T08:04:53.297Z,10.9
2018-04-19T08:05:54.030Z,11.1
2018-04-19T08:06:54.879Z,10.2
2018-04-19T08:07:55.687Z,10.3
2018-04-19T08:08:56.445Z,11.5
2018-04-19T08:09:57.199Z,10.6
2018-04-19T08:10:57.957Z,10.6
2018-04-19T08:11:58.717Z,11.5
2018-04-19T08:12:59.524Z,11.9
2018-04-19T08:14:00.359Z,12.2
2018-04-19T08:15:01.169Z,11.3
2018-04-19T08:16:01.906Z,11.5
2018-04-19T08:17:02.663Z,11.1
2018-04-19T08:18:03.442Z,11.0
2018-04-19T08:19:04.168Z,11.3
2018-04-19T08:20:05.004Z,12.2
2018-04-19T08:21:05.751Z,11.4
2018-04-19T08:22:06.504Z,10.8
2018-04-19T08:23:07.312Z,11.2
2018-04-19T08:24:08.029Z,11.1
2018-04-19T08:25:08.954Z,11.7
2018-04-19T08:26:09.698Z,12.2
2018-04-19T08:27:10.534Z,11.8
2018-04-19T08:28:11.281Z,11.3
2018-04-19T08:29:12.073Z,11.8
2018-04-19T08:30:13.219Z,11.7
2018-04-19T08:31:14.016Z,11.9
2018-04-19T08:32:14.780Z,12.0
2018-04-19T08:33:15.618Z,11.9
2018-04-19T08:34:16.434Z,13.2
2018-04-19T08:35:17.549Z,13.3
2018-04-19T08:36:18.557Z,13.1
2018-04-19T08:37:20.707Z,13.4
2018-04-19T08:38:21.747Z,13.1
2018-04-19T08:39:22.582Z,13.7
2018-04-19T08:40:24.678Z,13.8
2018-04-19T08:41:25.715Z,13.3
2018-04-19T08:42:27.302Z,15.2
2018-04-19T08:43:28.009Z,14.5
2018-04-19T08:44:28.928Z,16.9
2018-04-19T08:45:29.686Z,15.4
2018-04-19T08:46:30.512Z,15.0
2018-04-19T08:47:31.406Z,15.7
2018-04-19T08:48:32.558Z,15.3
2018-04-19T08:49:33.314Z,14.7
2018-04-19T08:50:34.123Z,15.7
2018-04-19T08:51:34.953Z,16.3
2018-04-19T08:52:35.708Z,15.8
2018-04-19T08:53:36.654Z,15.4
2018-04-19T08:54:37.478Z,15.1
2018-04-19T08:55:38.203Z,14.5
2018-04-19T08:56:38.962Z,15.1
2018-04-19T08:57:39.747Z,16.8
2018-04-19T08:58:40.976Z,16.7
2018-04-19T08:59:41.778Z,15.7
2018-04-19T09:00:42.534Z,16.6
2018-04-19T09:01:43.348Z,16.4
2018-04-19T09:02:44.117Z,16.1
2018-04-19T09:03:44.871Z,15.0
2018-04-19T09:04:45.652Z,14.3
2018-04-19T09:05:46.401Z,13.9
2018-04-19T09:06:47.251Z,14.3
2018-04-19T09:07:48.028Z,14.5
2018-04-19T09:08:48.783Z,14.6
2018-04-19T09:09:49.572Z,15.7
2018-04-19T09:10:50.334Z,15.3
2018-04-19T09:11:51.187Z,16.2
2018-04-19T09:12:51.991Z,13.9
2018-04-19T09:13:52.762Z,13.8
2018-04-19T09:14:53.515Z,12.2
2018-04-19T09:15:54.277Z,13.7
2018-04-19T09:16:55.031Z,13.7
2018-04-19T09:17:55.793Z,13.4
2018-04-19T09:18:56.554Z,13.1
2018-04-19T09:19:57.315Z,13.7
2018-04-19T09:20:58.091Z,13.9
2018-04-19T09:21:58.841Z,13.6
2018-04-19T09:22:59.656Z,13.0
2018-04-19T09:24:00.483Z,13.5
2018-04-19T09:25:01.254Z,13.4
2018-04-19T09:26:02.062Z,13.7
2018-04-19T09:27:02.785Z,13.5
2018-04-19T09:28:03.590Z,13.5
2018-04-19T09:29:04.334Z,12.7
2018-04-19T09:30:05.125Z,14.5
2018-04-19T09:31:05.923Z,13.5
2018-04-19T09:32:06.676Z,13.5
2018-04-19T09:33:07.478Z,14.4
2018-04-19T09:34:08.326Z,13.4
2018-04-19T09:35:09.082Z,14.5
2018-04-19T09:36:09.830Z,16.3
2018-04-19T09:37:10.664Z,16.1
2018-04-19T09:38:11.549Z,15.2
2018-04-19T09:39:12.305Z,15.4
2018-04-19T09:40:13.133Z,14.9
2018-04-19T09:41:13.972Z,12.0
2018-04-19T09:42:14.718Z,11.8
2018-04-19T09:43:15.479Z,11.1
2018-04-19T09:44:16.226Z,11.9
2018-04-19T09:45:17.071Z,11.0
2018-04-19T09:46:17.936Z,11.2
2018-04-19T09:47:18.693Z,9.7
2018-04-19T09:48:19.461Z,10.1
2018-04-19T09:49:20.219Z,9.3
2018-04-19T09:50:20.977Z,9.4
2018-04-19T09:51:21.959Z,8.3
2018-04-19T09:52:22.699Z,8.6
2018-04-19T09:53:23.439Z,9.2
2018-04-19T09:54:24.250Z,8.9
2018-04-19T09:55:25.091Z,9.6
2018-04-19T09:56:25.846Z,8.2
2018-04-19T09:57:26.671Z,8.1
2018-04-19T09:58:27.452Z,8.1
2018-04-19T09:59:28.217Z,8.8
2018-04-19T10:00:29.079Z,8.8
2018-04-19T10:01:29.895Z,7.4
2018-04-19T10:02:30.916Z,7.6
2018-04-19T10:03:31.727Z,9.1
2018-04-19T10:04:32.473Z,8.7
2018-04-19T10:05:33.300Z,8.9
2018-04-19T10:06:34.050Z,7.8
2018-04-19T10:07:34.853Z,7.7
2018-04-19T10:08:35.708Z,6.7
2018-04-19T10:09:36.488Z,7.3
2018-04-19T10:10:37.213Z,7.5
2018-04-19T10:11:37.958Z,7.5
2018-04-19T10:12:38.807Z,6.6
2018-04-19T10:13:39.562Z,6.0
2018-04-19T10:14:40.317Z,7.0
2018-04-19T10:15:41.080Z,6.3
2018-04-19T10:16:41.898Z,6.7
2018-04-19T10:17:42.971Z,6.5
2018-04-19T10:18:44.090Z,7.3
2018-04-19T10:19:44.803Z,6.9
2018-04-19T10:20:45.951Z,7.8
2018-04-19T10:21:46.707Z,7.8
2018-04-19T10:22:47.847Z,7.2
2018-04-19T10:23:48.765Z,6.8
2018-04-19T10:24:49.522Z,7.2
2018-04-19T10:25:50.430Z,7.5
2018-04-19T10:26:51.174Z,7.6
2018-04-19T10:27:51.932Z,7.4
2018-04-19T10:28:52.692Z,7.0
2018-04-19T10:29:53.436Z,7.6
2018-04-19T10:30:54.245Z,7.0
2018-04-19T10:31:55.073Z,8.2
2018-04-19T10:32:56.128Z,8.1
2018-04-19T10:33:56.948Z,8.7
2018-04-19T10:34:57.833Z,8.0
2018-04-19T10:35:58.600Z,8.0
2018-04-19T10:36:59.423Z,8.1
2018-04-19T10:38:00.234Z,8.7
2018-04-19T10:39:01.052Z,7.9
2018-04-19T10:40:01.895Z,7.7
2018-04-19T10:41:02.721Z,8.3
2018-04-19T10:42:03.549Z,7.8
2018-04-19T10:43:04.303Z,7.0
2018-04-19T10:44:05.175Z,7.6
2018-04-19T10:45:06.515Z,6.6
2018-04-19T10:46:07.476Z,6.3
2018-04-19T10:47:08.401Z,6.7
2018-04-19T10:48:09.122Z,6.8
2018-04-19T10:49:10.039Z,7.9
2018-04-19T10:50:10.790Z,7.7
2018-04-19T10:51:11.556Z,7.0
2018-04-19T10:53:13.299Z,5.9
2018-04-19T10:54:14.098Z,5.9
2018-04-19T10:55:14.871Z,5.9
2018-04-19T10:56:15.617Z,7.2
2018-04-19T10:57:16.378Z,6.7
2018-04-19T10:58:17.203Z,6.7
2018-04-19T10:59:18.044Z,6.6
2018-04-19T11:00:18.809Z,6.6
2018-04-19T11:01:19.589Z,5.7
2018-04-19T11:02:20.355Z,5.9
2018-04-19T11:03:21.161Z,7.2
2018-04-19T11:04:21.945Z,5.4
2018-04-19T11:05:22.707Z,5.6
2018-04-19T11:06:23.452Z,7.4
2018-04-19T11:07:24.213Z,7.2
2018-04-19T11:08:24.962Z,6.6
2018-04-19T11:09:25.719Z,7.0
2018-04-19T11:10:26.612Z,6.6
2018-04-19T11:11:27.448Z,6.5
2018-04-19T11:12:28.267Z,6.1
2018-04-19T11:13:29.030Z,6.3
2018-04-19T11:14:29.856Z,6.6
2018-04-19T11:15:31.486Z,6.7
2018-04-19T11:16:32.341Z,5.8
2018-04-19T11:17:33.184Z,6.2
2018-04-19T11:18:33.985Z,6.8
2018-04-19T11:19:34.757Z,6.5
2018-04-19T11:20:36.008Z,6.7
2018-04-19T11:21:36.858Z,6.4
2018-04-19T11:22:37.625Z,6.5
2018-04-19T11:23:38.662Z,5.9
2018-04-19T11:24:39.525Z,5.1
2018-04-19T11:25:40.288Z,5.1
2018-04-19T11:26:41.062Z,5.4
2018-04-19T11:27:41.894Z,5.8
2018-04-19T11:28:42.712Z,5.1
2018-04-19T11:29:43.476Z,5.9
2018-04-19T11:30:44.292Z,6.8
2018-04-19T11:31:45.047Z,6.9
2018-04-19T11:32:45.890Z,7.1
2018-04-19T11:33:46.649Z,7.9
2018-04-19T11:34:47.434Z,8.0
2018-04-19T11:35:48.228Z,8.3
2018-04-19T11:36:48.999Z,8.6
2018-04-19T11:37:49.896Z,9.1
2018-04-19T11:38:50.644Z,10.5
2018-04-19T11:39:51.415Z,13.5
2018-04-19T11:40:52.163Z,11.5
2018-04-19T11:41:52.927Z,11.8
2018-04-19T11:42:53.694Z,11.4
2018-04-19T11:43:54.456Z,11.9
2018-04-19T11:44:55.392Z,9.5
2018-04-19T11:45:56.146Z,11.3
2018-04-19T11:46:56.898Z,11.1
2018-04-19T11:47:57.655Z,10.9
2018-04-19T11:48:58.478Z,10.6
2018-04-19T11:49:59.208Z,12.0
2018-04-19T11:51:00.018Z,11.2
2018-04-19T11:52:00.767Z,9.4
2018-04-19T11:53:01.621Z,10.2
2018-04-19T11:54:02.381Z,10.6
2018-04-19T11:55:03.168Z,9.4
2018-04-19T11:56:03.928Z,8.8
2018-04-19T11:57:04.679Z,9.3
2018-04-19T11:58:05.418Z,9.2
2018-04-19T11:59:06.180Z,8.4
2018-04-19T12:00:07.013Z,7.6
2018-04-19T12:01:07.891Z,6.9
2018-04-19T12:02:08.682Z,7.3
2018-04-19T12:03:09.465Z,6.7
2018-04-19T12:04:10.210Z,6.7
2018-04-19T12:05:10.984Z,7.4
2018-04-19T12:06:11.788Z,7.2
2018-04-19T12:07:12.532Z,6.9
2018-04-19T12:08:13.325Z,7.7
2018-04-19T12:09:14.092Z,8.4
2018-04-19T12:10:14.846Z,8.7
2018-04-19T12:11:15.701Z,9.8
2018-04-19T12:12:16.527Z,9.3
2018-04-19T12:13:17.306Z,10.3
2018-04-19T12:14:18.124Z,9.0
2018-04-19T12:15:19.225Z,8.3
2018-04-19T12:16:20.002Z,8.9
2018-04-19T12:17:20.734Z,8.5
2018-04-19T12:18:21.504Z,9.0
2018-04-19T12:19:22.360Z,9.6
2018-04-19T12:20:23.092Z,10.9
2018-04-19T12:21:23.885Z,10.2
2018-04-19T12:22:24.716Z,10.8
2018-04-19T12:23:25.589Z,10.6
2018-04-19T12:24:26.314Z,8.7
2018-04-19T12:25:27.093Z,9.0
2018-04-19T12:26:27.914Z,11.2
2018-04-19T12:27:28.695Z,10.8
2018-04-19T12:28:29.468Z,9.6
2018-04-19T12:29:30.242Z,8.7
2018-04-19T12:30:31.071Z,8.9
2018-04-19T12:31:31.900Z,9.2
2018-04-19T12:32:32.661Z,9.5
2018-04-19T12:33:33.499Z,10.9
2018-04-19T12:34:34.264Z,10.4
2018-04-19T12:35:35.025Z,9.9
2018-04-19T12:36:35.766Z,8.8
2018-04-19T12:37:36.608Z,8.6
2018-04-19T12:38:37.400Z,8.7
2018-04-19T12:39:38.184Z,7.7
2018-04-19T12:40:39.006Z,8.7
2018-04-19T12:41:39.800Z,8.2
2018-04-19T12:42:40.534Z,8.2
2018-04-19T12:43:41.336Z,8.3
2018-04-19T12:44:42.181Z,7.3
2018-04-19T12:45:43.007Z,7.6
2018-04-19T12:46:43.768Z,6.9
2018-04-19T12:47:44.624Z,7.6
2018-04-19T12:48:45.449Z,6.8
2018-04-19T12:49:46.272Z,6.6
2018-04-19T12:50:47.083Z,6.3
2018-04-19T12:51:47.879Z,6.9
2018-04-19T12:52:48.629Z,5.8
2018-04-19T12:53:49.453Z,6.6
2018-04-19T12:54:50.217Z,6.4
2018-04-19T12:55:51.055Z,6.7
2018-04-19T12:56:51.840Z,5.9
2018-04-19T12:57:52.977Z,5.3
2018-04-19T12:58:53.741Z,6.1
2018-04-19T12:59:54.567Z,5.1
2018-04-19T13:00:55.315Z,5.2
2018-04-19T13:01:56.068Z,4.9
2018-04-19T13:02:56.943Z,5.1
2018-04-19T13:03:57.713Z,4.5
2018-04-19T13:04:58.535Z,5.1
2018-04-19T13:05:59.291Z,4.6
2018-04-19T13:07:00.104Z,4.9
2018-04-19T13:08:01.258Z,4.5
2018-04-19T13:09:02.008Z,5.6
2018-04-19T13:10:02.830Z,5.3
2018-04-19T13:11:03.660Z,4.5
2018-04-19T13:12:04.495Z,5.0
2018-04-19T13:13:05.334Z,4.7
2018-04-19T13:14:06.076Z,4.4
2018-04-19T13:15:06.877Z,4.7
2018-04-19T13:16:07.647Z,4.5
2018-04-19T13:17:08.390Z,5.1
2018-04-19T13:18:09.286Z,5.0
2018-04-19T13:19:10.030Z,4.9
2018-04-19T13:20:10.786Z,4.7
2018-04-19T13:21:11.548Z,3.8
2018-04-19T13:22:12.306Z,4.2
2018-04-19T13:23:13.059Z,4.6
2018-04-19T13:24:13.860Z,4.5
2018-04-19T13:25:14.620Z,4.5
2018-04-19T13:26:15.394Z,4.5
2018-04-19T13:27:16.233Z,4.7
2018-04-19T13:28:16.985Z,3.6
2018-04-19T13:29:17.841Z,4.1
2018-04-19T13:30:18.594Z,5.4
2018-04-19T13:31:19.402Z,4.8
2018-04-19T13:32:20.234Z,5.2
2018-04-19T13:33:20.994Z,4.3
2018-04-19T13:34:21.768Z,4.6
2018-04-19T13:35:22.582Z,4.2
2018-04-19T13:36:23.340Z,4.7
2018-04-19T13:37:24.086Z,4.5